sensor_id;sensor_type;location;lat;lon;timestamp;P1;durP1;ratioP1;P2;durP2;ratioP2
64686;SDS011;51113;53.646;-113.674;2022-08-02T00:01:01;13.43;;;6.32;;
64686;SDS011;51113;53.646;-113.674;2022-08-02T00:03:30;15.98;;;6.80;;
64686;SDS011;51113;53.646;-113.674;2022-08-02T00:05:59;15.52;;;6.72;;
64686;SDS011;51113;53.646;-113.674;2022-08-02T00:08:27;12.65;;;6.40;;
64686;SDS011;51113;53.646;-113.674;2022-08-02T00:10:56;16.23;;;6.95;;
64686;SDS011;51113;53.646;-113.674;2022-08-02T00:13:25;10.60;;;6.55;;
64686;SDS011;51113;53.646;-113.674;2022-08-02T00:15:53;20.83;;;7.18;;
64686;SDS011;51113;53.646;-113.674;2022-08-02T00:18:22;12.88;;;7.28;;
64686;SDS011;51113;53.646;-113.674;2022-08-02T00:20:50;10.43;;;6.75;;
64686;SDS011;51113;53.646;-113.674;2022-08-02T00:23:19;15.63;;;6.95;;
64686;SDS011;51113;53.646;-113.674;2022-08-02T00:25:48;20.40;;;7.53;;
64686;SDS011;51113;53.646;-113.674;2022-08-02T00:28:21;23.67;;;7.20;;
64686;SDS011;51113;53.646;-113.674;2022-08-02T00:30:53;13.90;;;7.13;;
64686;SDS011;51113;53.646;-113.674;2022-08-02T00:33:23;17.85;;;7.40;;
64686;SDS011;51113;53.646;-113.674;2022-08-02T00:36:12;14.43;;;6.97;;
64686;SDS011;51113;53.646;-113.674;2022-08-02T00:38:41;14.65;;;8.65;;
64686;SDS011;51113;53.646;-113.674;2022-08-02T00:41:11;13.88;;;6.95;;
64686;SDS011;51113;53.646;-113.674;2022-08-02T00:43:43;10.70;;;6.93;;
64686;SDS011;51113;53.646;-113.674;2022-08-02T00:46:13;11.75;;;7.10;;
64686;SDS011;51113;53.646;-113.674;2022-08-02T00:48:42;14.80;;;6.95;;
64686;SDS011;51113;53.646;-113.674;2022-08-02T00:51:11;13.70;;;6.82;;
64686;SDS011;51113;53.646;-113.674;2022-08-02T00:53:40;9.75;;;6.82;;
64686;SDS011;51113;53.646;-113.674;2022-08-02T00:56:09;10.57;;;6.25;;
64686;SDS011;51113;53.646;-113.674;2022-08-02T00:58:38;10.25;;;5.75;;
64686;SDS011;51113;53.646;-113.674;2022-08-02T01:01:06;15.68;;;6.75;;
64686;SDS011;51113;53.646;-113.674;2022-08-02T01:03:35;12.85;;;5.55;;
64686;SDS011;51113;53.646;-113.674;2022-08-02T01:06:04;14.63;;;6.18;;
64686;SDS011;51113;53.646;-113.674;2022-08-02T01:08:37;11.10;;;5.82;;
64686;SDS011;51113;53.646;-113.674;2022-08-02T01:11:09;15.10;;;5.68;;
64686;SDS011;51113;53.646;-113.674;2022-08-02T01:13:38;11.48;;;5.88;;
64686;SDS011;51113;53.646;-113.674;2022-08-02T01:16:10;9.90;;;5.20;;
64686;SDS011;51113;53.646;-113.674;2022-08-02T01:18:44;12.50;;;4.55;;
64686;SDS011;51113;53.646;-113.674;2022-08-02T01:21:22;13.80;;;4.75;;
64686;SDS011;51113;53.646;-113.674;2022-08-02T01:27:09;12.50;;;4.93;;
64686;SDS011;51113;53.646;-113.674;2022-08-02T01:29:59;7.72;;;4.78;;
64686;SDS011;51113;53.646;-113.674;2022-08-02T01:32:34;6.38;;;4.35;;
64686;SDS011;51113;53.646;-113.674;2022-08-02T01:35:10;7.20;;;4.50;;
64686;SDS011;51113;53.646;-113.674;2022-08-02T01:38:19;9.15;;;5.32;;
64686;SDS011;51113;53.646;-113.674;2022-08-02T01:41:04;11.45;;;5.65;;
64686;SDS011;51113;53.646;-113.674;2022-08-02T01:43:37;6.70;;;4.68;;
64686;SDS011;51113;53.646;-113.674;2022-08-02T01:46:08;13.15;;;4.63;;
64686;SDS011;51113;53.646;-113.674;2022-08-02T01:48:40;11.05;;;4.80;;
64686;SDS011;51113;53.646;-113.674;2022-08-02T01:51:12;12.00;;;4.93;;
64686;SDS011;51113;53.646;-113.674;2022-08-02T01:53:44;12.13;;;5.35;;
64686;SDS011;51113;53.646;-113.674;2022-08-02T01:56:17;10.00;;;5.40;;
64686;SDS011;51113;53.646;-113.674;2022-08-02T01:58:47;11.73;;;4.78;;
64686;SDS011;51113;53.646;-113.674;2022-08-02T02:01:16;28.13;;;5.25;;
64686;SDS011;51113;53.646;-113.674;2022-08-02T02:03:47;24.73;;;5.07;;
64686;SDS011;51113;53.646;-113.674;2022-08-02T02:06:16;24.05;;;3.95;;
64686;SDS011;51113;53.646;-113.674;2022-08-02T02:08:46;11.80;;;2.88;;
64686;SDS011;51113;53.646;-113.674;2022-08-02T02:11:16;10.73;;;2.92;;
64686;SDS011;51113;53.646;-113.674;2022-08-02T02:14:05;16.58;;;3.45;;
64686;SDS011;51113;53.646;-113.674;2022-08-02T02:16:37;12.52;;;2.67;;
64686;SDS011;51113;53.646;-113.674;2022-08-02T02:19:09;18.90;;;2.58;;
64686;SDS011;51113;53.646;-113.674;2022-08-02T02:21:46;8.68;;;2.83;;
64686;SDS011;51113;53.646;-113.674;2022-08-02T02:24:16;7.72;;;1.98;;
64686;SDS011;51113;53.646;-113.674;2022-08-02T02:26:45;11.35;;;2.47;;
64686;SDS011;51113;53.646;-113.674;2022-08-02T02:31:49;11.88;;;2.95;;
64686;SDS011;51113;53.646;-113.674;2022-08-02T02:34:34;14.70;;;2.75;;
64686;SDS011;51113;53.646;-113.674;2022-08-02T02:37:07;8.25;;;2.92;;
64686;SDS011;51113;53.646;-113.674;2022-08-02T02:39:49;10.90;;;2.80;;
64686;SDS011;51113;53.646;-113.674;2022-08-02T02:42:19;10.50;;;2.53;;
64686;SDS011;51113;53.646;-113.674;2022-08-02T02:47:20;7.50;;;2.22;;
64686;SDS011;51113;53.646;-113.674;2022-08-02T02:50:07;8.15;;;1.80;;
64686;SDS011;51113;53.646;-113.674;2022-08-02T02:52:38;8.23;;;2.00;;
64686;SDS011;51113;53.646;-113.674;2022-08-02T02:55:08;5.18;;;2.05;;
64686;SDS011;51113;53.646;-113.674;2022-08-02T02:57:38;5.60;;;2.40;;
64686;SDS011;51113;53.646;-113.674;2022-08-02T03:00:08;8.48;;;2.15;;
64686;SDS011;51113;53.646;-113.674;2022-08-02T03:02:40;7.95;;;2.50;;
64686;SDS011;51113;53.646;-113.674;2022-08-02T03:05:11;4.78;;;2.55;;
64686;SDS011;51113;53.646;-113.674;2022-08-02T03:07:40;5.05;;;2.00;;
64686;SDS011;51113;53.646;-113.674;2022-08-02T03:10:08;4.10;;;1.70;;
64686;SDS011;51113;53.646;-113.674;2022-08-02T03:12:37;3.63;;;2.10;;
64686;SDS011;51113;53.646;-113.674;2022-08-02T03:15:06;4.20;;;2.00;;
64686;SDS011;51113;53.646;-113.674;2022-08-02T03:17:42;3.20;;;1.95;;
64686;SDS011;51113;53.646;-113.674;2022-08-02T03:20:12;2.92;;;1.90;;
64686;SDS011;51113;53.646;-113.674;2022-08-02T03:22:43;5.93;;;1.90;;
64686;SDS011;51113;53.646;-113.674;2022-08-02T03:25:12;2.83;;;1.60;;
64686;SDS011;51113;53.646;-113.674;2022-08-02T03:27:43;3.33;;;1.75;;
64686;SDS011;51113;53.646;-113.674;2022-08-02T03:30:12;5.82;;;1.67;;
64686;SDS011;51113;53.646;-113.674;2022-08-02T03:32:43;3.33;;;1.80;;
64686;SDS011;51113;53.646;-113.674;2022-08-02T03:35:14;3.83;;;1.83;;
64686;SDS011;51113;53.646;-113.674;2022-08-02T03:37:50;13.02;;;1.88;;
64686;SDS011;51113;53.646;-113.674;2022-08-02T03:40:20;7.18;;;1.40;;
64686;SDS011;51113;53.646;-113.674;2022-08-02T03:42:49;2.45;;;1.15;;
64686;SDS011;51113;53.646;-113.674;2022-08-02T03:45:17;5.32;;;1.05;;
64686;SDS011;51113;53.646;-113.674;2022-08-02T03:47:47;1.70;;;1.00;;
64686;SDS011;51113;53.646;-113.674;2022-08-02T03:50:17;2.42;;;1.30;;
64686;SDS011;51113;53.646;-113.674;2022-08-02T03:52:49;2.13;;;1.10;;
64686;SDS011;51113;53.646;-113.674;2022-08-02T03:55:19;4.10;;;1.30;;
64686;SDS011;51113;53.646;-113.674;2022-08-02T03:57:47;1.98;;;1.20;;
64686;SDS011;51113;53.646;-113.674;2022-08-02T04:00:17;3.08;;;1.40;;
64686;SDS011;51113;53.646;-113.674;2022-08-02T04:05:18;2.75;;;1.42;;
64686;SDS011;51113;53.646;-113.674;2022-08-02T04:07:47;3.30;;;1.40;;
64686;SDS011;51113;53.646;-113.674;2022-08-02T04:10:35;7.30;;;1.48;;
64686;SDS011;51113;53.646;-113.674;2022-08-02T04:13:25;2.63;;;1.50;;
64686;SDS011;51113;53.646;-113.674;2022-08-02T04:18:50;1.90;;;1.42;;
64686;SDS011;51113;53.646;-113.674;2022-08-02T04:21:25;2.25;;;1.45;;
64686;SDS011;51113;53.646;-113.674;2022-08-02T04:24:16;2.65;;;1.52;;
64686;SDS011;51113;53.646;-113.674;2022-08-02T04:26:51;2.50;;;1.10;;
64686;SDS011;51113;53.646;-113.674;2022-08-02T04:29:32;2.15;;;1.30;;
64686;SDS011;51113;53.646;-113.674;2022-08-02T04:32:03;1.95;;;1.17;;
64686;SDS011;51113;53.646;-113.674;2022-08-02T04:34:34;2.22;;;1.80;;
64686;SDS011;51113;53.646;-113.674;2022-08-02T04:37:04;3.28;;;1.48;;
64686;SDS011;51113;53.646;-113.674;2022-08-02T04:39:33;2.38;;;1.60;;
64686;SDS011;51113;53.646;-113.674;2022-08-02T04:42:02;3.08;;;1.60;;
64686;SDS011;51113;53.646;-113.674;2022-08-02T04:44:31;2.40;;;1.38;;
64686;SDS011;51113;53.646;-113.674;2022-08-02T04:47:00;4.80;;;1.45;;
64686;SDS011;51113;53.646;-113.674;2022-08-02T04:49:32;4.80;;;1.27;;
64686;SDS011;51113;53.646;-113.674;2022-08-02T04:52:01;6.97;;;1.90;;
64686;SDS011;51113;53.646;-113.674;2022-08-02T04:54:30;5.93;;;1.50;;
64686;SDS011;51113;53.646;-113.674;2022-08-02T04:56:58;1.83;;;1.17;;
64686;SDS011;51113;53.646;-113.674;2022-08-02T04:59:27;2.95;;;1.40;;
64686;SDS011;51113;53.646;-113.674;2022-08-02T05:01:55;2.42;;;1.50;;
64686;SDS011;51113;53.646;-113.674;2022-08-02T05:04:24;1.88;;;1.40;;
64686;SDS011;51113;53.646;-113.674;2022-08-02T05:06:52;1.67;;;1.10;;
64686;SDS011;51113;53.646;-113.674;2022-08-02T05:09:21;3.30;;;1.70;;
64686;SDS011;51113;53.646;-113.674;2022-08-02T05:11:49;3.22;;;1.38;;
64686;SDS011;51113;53.646;-113.674;2022-08-02T05:14:20;3.35;;;1.20;;
64686;SDS011;51113;53.646;-113.674;2022-08-02T05:16:49;9.02;;;1.77;;
64686;SDS011;51113;53.646;-113.674;2022-08-02T05:19:18;3.38;;;1.50;;
64686;SDS011;51113;53.646;-113.674;2022-08-02T05:21:47;3.55;;;1.70;;
64686;SDS011;51113;53.646;-113.674;2022-08-02T05:24:16;7.05;;;1.67;;
64686;SDS011;51113;53.646;-113.674;2022-08-02T05:26:44;2.78;;;1.50;;
64686;SDS011;51113;53.646;-113.674;2022-08-02T05:29:13;7.55;;;1.95;;
64686;SDS011;51113;53.646;-113.674;2022-08-02T05:31:42;2.95;;;1.60;;
64686;SDS011;51113;53.646;-113.674;2022-08-02T05:34:12;4.13;;;1.70;;
64686;SDS011;51113;53.646;-113.674;2022-08-02T05:36:40;7.93;;;1.90;;
64686;SDS011;51113;53.646;-113.674;2022-08-02T05:39:11;3.03;;;1.88;;
64686;SDS011;51113;53.646;-113.674;2022-08-02T05:41:45;7.60;;;2.10;;
64686;SDS011;51113;53.646;-113.674;2022-08-02T05:44:14;3.03;;;1.40;;
64686;SDS011;51113;53.646;-113.674;2022-08-02T05:46:42;3.40;;;1.90;;
64686;SDS011;51113;53.646;-113.674;2022-08-02T05:49:13;2.42;;;1.45;;
64686;SDS011;51113;53.646;-113.674;2022-08-02T05:51:42;3.85;;;1.60;;
64686;SDS011;51113;53.646;-113.674;2022-08-02T05:54:22;3.95;;;1.83;;
64686;SDS011;51113;53.646;-113.674;2022-08-02T05:57:04;3.08;;;1.60;;
64686;SDS011;51113;53.646;-113.674;2022-08-02T06:03:23;3.35;;;1.55;;
64686;SDS011;51113;53.646;-113.674;2022-08-02T06:05:39;3.17;;;1.60;;
64686;SDS011;51113;53.646;-113.674;2022-08-02T06:08:09;4.20;;;1.73;;
64686;SDS011;51113;53.646;-113.674;2022-08-02T06:10:38;5.70;;;1.50;;
64686;SDS011;51113;53.646;-113.674;2022-08-02T06:13:13;7.65;;;1.80;;
64686;SDS011;51113;53.646;-113.674;2022-08-02T06:15:43;4.93;;;2.10;;
64686;SDS011;51113;53.646;-113.674;2022-08-02T06:18:19;7.47;;;1.80;;
64686;SDS011;51113;53.646;-113.674;2022-08-02T06:20:57;2.70;;;1.67;;
64686;SDS011;51113;53.646;-113.674;2022-08-02T06:23:48;2.70;;;1.88;;
64686;SDS011;51113;53.646;-113.674;2022-08-02T06:26:25;2.05;;;1.52;;
64686;SDS011;51113;53.646;-113.674;2022-08-02T06:28:55;6.72;;;2.03;;
64686;SDS011;51113;53.646;-113.674;2022-08-02T06:31:25;3.08;;;1.70;;
64686;SDS011;51113;53.646;-113.674;2022-08-02T06:33:53;5.13;;;1.73;;
64686;SDS011;51113;53.646;-113.674;2022-08-02T06:39:02;4.40;;;1.80;;
64686;SDS011;51113;53.646;-113.674;2022-08-02T06:41:37;4.30;;;1.77;;
64686;SDS011;51113;53.646;-113.674;2022-08-02T06:44:08;2.72;;;1.80;;
64686;SDS011;51113;53.646;-113.674;2022-08-02T06:46:58;4.43;;;1.77;;
64686;SDS011;51113;53.646;-113.674;2022-08-02T06:49:38;6.63;;;1.92;;
64686;SDS011;51113;53.646;-113.674;2022-08-02T06:52:20;5.25;;;2.00;;
64686;SDS011;51113;53.646;-113.674;2022-08-02T06:54:59;4.28;;;1.55;;
64686;SDS011;51113;53.646;-113.674;2022-08-02T06:57:30;4.63;;;2.08;;
64686;SDS011;51113;53.646;-113.674;2022-08-02T06:59:59;2.88;;;1.80;;
64686;SDS011;51113;53.646;-113.674;2022-08-02T07:02:29;2.80;;;1.77;;
64686;SDS011;51113;53.646;-113.674;2022-08-02T07:04:59;2.78;;;1.83;;
64686;SDS011;51113;53.646;-113.674;2022-08-02T07:07:27;4.28;;;2.00;;
64686;SDS011;51113;53.646;-113.674;2022-08-02T07:09:57;5.90;;;1.95;;
64686;SDS011;51113;53.646;-113.674;2022-08-02T07:12:28;2.75;;;1.90;;
64686;SDS011;51113;53.646;-113.674;2022-08-02T07:14:58;3.45;;;1.88;;
64686;SDS011;51113;53.646;-113.674;2022-08-02T07:17:28;4.60;;;1.90;;
64686;SDS011;51113;53.646;-113.674;2022-08-02T07:19:57;4.32;;;1.65;;
64686;SDS011;51113;53.646;-113.674;2022-08-02T07:22:27;6.80;;;1.70;;
64686;SDS011;51113;53.646;-113.674;2022-08-02T07:24:57;6.93;;;1.70;;
64686;SDS011;51113;53.646;-113.674;2022-08-02T07:27:27;3.65;;;1.70;;
64686;SDS011;51113;53.646;-113.674;2022-08-02T07:29:56;4.80;;;1.92;;
64686;SDS011;51113;53.646;-113.674;2022-08-02T07:32:26;5.20;;;2.10;;
64686;SDS011;51113;53.646;-113.674;2022-08-02T07:34:56;2.03;;;1.60;;
64686;SDS011;51113;53.646;-113.674;2022-08-02T07:37:32;3.20;;;1.98;;
64686;SDS011;51113;53.646;-113.674;2022-08-02T07:40:22;3.05;;;1.90;;
64686;SDS011;51113;53.646;-113.674;2022-08-02T07:42:52;2.35;;;1.75;;
64686;SDS011;51113;53.646;-113.674;2022-08-02T07:45:29;4.03;;;2.10;;
64686;SDS011;51113;53.646;-113.674;2022-08-02T07:48:01;3.17;;;2.00;;
64686;SDS011;51113;53.646;-113.674;2022-08-02T07:50:30;5.10;;;2.10;;
64686;SDS011;51113;53.646;-113.674;2022-08-02T07:52:59;5.95;;;2.05;;
64686;SDS011;51113;53.646;-113.674;2022-08-02T07:55:28;5.10;;;2.05;;
64686;SDS011;51113;53.646;-113.674;2022-08-02T07:58:05;3.00;;;1.80;;
64686;SDS011;51113;53.646;-113.674;2022-08-02T08:00:38;7.50;;;2.38;;
64686;SDS011;51113;53.646;-113.674;2022-08-02T08:03:07;8.27;;;2.60;;
64686;SDS011;51113;53.646;-113.674;2022-08-02T08:05:36;6.60;;;2.15;;
64686;SDS011;51113;53.646;-113.674;2022-08-02T08:08:05;12.85;;;2.60;;
64686;SDS011;51113;53.646;-113.674;2022-08-02T08:10:39;4.78;;;3.05;;
64686;SDS011;51113;53.646;-113.674;2022-08-02T08:13:08;7.35;;;2.78;;
64686;SDS011;51113;53.646;-113.674;2022-08-02T08:15:36;3.85;;;2.40;;
64686;SDS011;51113;53.646;-113.674;2022-08-02T08:18:05;6.50;;;2.67;;
64686;SDS011;51113;53.646;-113.674;2022-08-02T08:20:37;6.28;;;2.58;;
64686;SDS011;51113;53.646;-113.674;2022-08-02T08:23:05;9.70;;;2.80;;
64686;SDS011;51113;53.646;-113.674;2022-08-02T08:25:34;6.93;;;2.50;;
64686;SDS011;51113;53.646;-113.674;2022-08-02T08:30:36;3.92;;;2.53;;
64686;SDS011;51113;53.646;-113.674;2022-08-02T08:33:07;5.07;;;2.53;;
64686;SDS011;51113;53.646;-113.674;2022-08-02T08:35:36;6.13;;;2.72;;
64686;SDS011;51113;53.646;-113.674;2022-08-02T08:38:05;8.63;;;2.55;;
64686;SDS011;51113;53.646;-113.674;2022-08-02T08:40:35;11.80;;;2.90;;
64686;SDS011;51113;53.646;-113.674;2022-08-02T08:43:03;10.68;;;2.72;;
64686;SDS011;51113;53.646;-113.674;2022-08-02T08:45:32;8.55;;;2.80;;
64686;SDS011;51113;53.646;-113.674;2022-08-02T08:48:05;3.63;;;2.22;;
64686;SDS011;51113;53.646;-113.674;2022-08-02T08:51:00;8.70;;;2.23;;
64686;SDS011;51113;53.646;-113.674;2022-08-02T08:53:36;9.00;;;2.40;;
64686;SDS011;51113;53.646;-113.674;2022-08-02T08:56:10;7.28;;;2.17;;
64686;SDS011;51113;53.646;-113.674;2022-08-02T08:58:42;7.40;;;2.47;;
64686;SDS011;51113;53.646;-113.674;2022-08-02T09:01:14;7.63;;;2.80;;
64686;SDS011;51113;53.646;-113.674;2022-08-02T09:03:44;16.00;;;2.72;;
64686;SDS011;51113;53.646;-113.674;2022-08-02T09:06:13;12.68;;;2.40;;
64686;SDS011;51113;53.646;-113.674;2022-08-02T09:08:42;15.27;;;2.63;;
64686;SDS011;51113;53.646;-113.674;2022-08-02T09:11:11;5.88;;;2.40;;
64686;SDS011;51113;53.646;-113.674;2022-08-02T09:14:02;8.07;;;2.40;;
64686;SDS011;51113;53.646;-113.674;2022-08-02T09:16:32;7.30;;;2.15;;
64686;SDS011;51113;53.646;-113.674;2022-08-02T09:19:24;9.68;;;2.50;;
64686;SDS011;51113;53.646;-113.674;2022-08-02T09:22:01;4.03;;;2.50;;
64686;SDS011;51113;53.646;-113.674;2022-08-02T09:24:40;13.98;;;3.00;;
64686;SDS011;51113;53.646;-113.674;2022-08-02T09:27:17;10.80;;;2.28;;
64686;SDS011;51113;53.646;-113.674;2022-08-02T09:29:52;5.55;;;2.45;;
64686;SDS011;51113;53.646;-113.674;2022-08-02T09:32:45;10.55;;;2.30;;
64686;SDS011;51113;53.646;-113.674;2022-08-02T09:38:34;10.00;;;2.20;;
64686;SDS011;51113;53.646;-113.674;2022-08-02T09:41:04;6.00;;;2.22;;
64686;SDS011;51113;53.646;-113.674;2022-08-02T09:43:38;7.85;;;2.30;;
64686;SDS011;51113;53.646;-113.674;2022-08-02T09:46:31;5.88;;;2.47;;
64686;SDS011;51113;53.646;-113.674;2022-08-02T09:49:08;3.92;;;2.17;;
64686;SDS011;51113;53.646;-113.674;2022-08-02T09:54:08;7.80;;;2.10;;
64686;SDS011;51113;53.646;-113.674;2022-08-02T09:56:42;10.63;;;2.30;;
64686;SDS011;51113;53.646;-113.674;2022-08-02T09:59:15;14.30;;;2.58;;
64686;SDS011;51113;53.646;-113.674;2022-08-02T10:01:46;8.45;;;2.63;;
64686;SDS011;51113;53.646;-113.674;2022-08-02T10:04:29;9.00;;;2.53;;
64686;SDS011;51113;53.646;-113.674;2022-08-02T10:07:10;5.00;;;1.98;;
64686;SDS011;51113;53.646;-113.674;2022-08-02T10:09:39;9.55;;;2.22;;
64686;SDS011;51113;53.646;-113.674;2022-08-02T10:14:41;5.43;;;2.30;;
64686;SDS011;51113;53.646;-113.674;2022-08-02T10:17:11;9.02;;;2.30;;
64686;SDS011;51113;53.646;-113.674;2022-08-02T10:19:41;6.32;;;2.05;;
64686;SDS011;51113;53.646;-113.674;2022-08-02T10:22:29;6.72;;;2.20;;
64686;SDS011;51113;53.646;-113.674;2022-08-02T10:25:02;9.85;;;2.00;;
64686;SDS011;51113;53.646;-113.674;2022-08-02T10:27:31;9.30;;;2.60;;
64686;SDS011;51113;53.646;-113.674;2022-08-02T10:30:21;3.20;;;2.17;;
64686;SDS011;51113;53.646;-113.674;2022-08-02T10:32:51;3.03;;;1.92;;
64686;SDS011;51113;53.646;-113.674;2022-08-02T10:35:22;5.88;;;2.00;;
64686;SDS011;51113;53.646;-113.674;2022-08-02T10:37:53;4.40;;;2.10;;
64686;SDS011;51113;53.646;-113.674;2022-08-02T10:40:25;4.83;;;2.40;;
64686;SDS011;51113;53.646;-113.674;2022-08-02T10:43:12;7.20;;;2.25;;
64686;SDS011;51113;53.646;-113.674;2022-08-02T10:54:33;4.03;;;2.22;;
64686;SDS011;51113;53.646;-113.674;2022-08-02T10:57:14;3.63;;;2.25;;
64686;SDS011;51113;53.646;-113.674;2022-08-02T10:59:44;8.40;;;2.42;;
64686;SDS011;51113;53.646;-113.674;2022-08-02T11:02:31;2.97;;;2.00;;
64686;SDS011;51113;53.646;-113.674;2022-08-02T11:05:11;8.30;;;2.75;;
64686;SDS011;51113;53.646;-113.674;2022-08-02T11:07:46;2.70;;;2.08;;
64686;SDS011;51113;53.646;-113.674;2022-08-02T11:13:02;5.50;;;2.17;;
64686;SDS011;51113;53.646;-113.674;2022-08-02T11:19:00;2.83;;;2.05;;
64686;SDS011;51113;53.646;-113.674;2022-08-02T11:21:22;3.35;;;2.10;;
64686;SDS011;51113;53.646;-113.674;2022-08-02T11:23:51;7.80;;;2.67;;
64686;SDS011;51113;53.646;-113.674;2022-08-02T11:28:58;4.18;;;2.42;;
64686;SDS011;51113;53.646;-113.674;2022-08-02T11:31:28;3.63;;;2.00;;
64686;SDS011;51113;53.646;-113.674;2022-08-02T11:34:05;9.25;;;2.25;;
64686;SDS011;51113;53.646;-113.674;2022-08-02T11:36:48;6.72;;;2.78;;
64686;SDS011;51113;53.646;-113.674;2022-08-02T11:39:20;8.10;;;2.30;;
64686;SDS011;51113;53.646;-113.674;2022-08-02T11:41:56;6.53;;;2.50;;
64686;SDS011;51113;53.646;-113.674;2022-08-02T11:44:27;6.45;;;2.22;;
64686;SDS011;51113;53.646;-113.674;2022-08-02T11:47:00;7.60;;;2.15;;
64686;SDS011;51113;53.646;-113.674;2022-08-02T11:51:59;15.20;;;2.40;;
64686;SDS011;51113;53.646;-113.674;2022-08-02T11:54:34;4.47;;;2.45;;
64686;SDS011;51113;53.646;-113.674;2022-08-02T11:59:49;4.90;;;2.35;;
64686;SDS011;51113;53.646;-113.674;2022-08-02T12:02:19;3.72;;;2.15;;
64686;SDS011;51113;53.646;-113.674;2022-08-02T12:05:05;6.40;;;1.98;;
64686;SDS011;51113;53.646;-113.674;2022-08-02T12:07:36;6.93;;;2.58;;
64686;SDS011;51113;53.646;-113.674;2022-08-02T12:10:15;8.43;;;2.28;;
64686;SDS011;51113;53.646;-113.674;2022-08-02T12:12:49;5.60;;;2.28;;
64686;SDS011;51113;53.646;-113.674;2022-08-02T12:15:39;4.05;;;2.45;;
64686;SDS011;51113;53.646;-113.674;2022-08-02T12:18:12;7.50;;;2.25;;
64686;SDS011;51113;53.646;-113.674;2022-08-02T12:21:01;3.67;;;2.08;;
64686;SDS011;51113;53.646;-113.674;2022-08-02T12:23:31;3.17;;;2.33;;
64686;SDS011;51113;53.646;-113.674;2022-08-02T12:26:20;3.75;;;2.08;;
64686;SDS011;51113;53.646;-113.674;2022-08-02T12:28:53;4.57;;;2.22;;
64686;SDS011;51113;53.646;-113.674;2022-08-02T12:31:41;4.70;;;2.47;;
64686;SDS011;51113;53.646;-113.674;2022-08-02T12:34:23;6.82;;;2.65;;
64686;SDS011;51113;53.646;-113.674;2022-08-02T12:39:40;3.63;;;2.00;;
64686;SDS011;51113;53.646;-113.674;2022-08-02T12:42:13;4.13;;;1.85;;
64686;SDS011;51113;53.646;-113.674;2022-08-02T12:44:53;2.97;;;1.85;;
64686;SDS011;51113;53.646;-113.674;2022-08-02T12:47:22;3.22;;;2.05;;
64686;SDS011;51113;53.646;-113.674;2022-08-02T12:50:17;10.23;;;2.40;;
64686;SDS011;51113;53.646;-113.674;2022-08-02T12:55:49;6.45;;;1.88;;
64686;SDS011;51113;53.646;-113.674;2022-08-02T12:58:29;2.88;;;1.83;;
64686;SDS011;51113;53.646;-113.674;2022-08-02T13:00:58;3.13;;;1.70;;
64686;SDS011;51113;53.646;-113.674;2022-08-02T13:03:28;3.55;;;1.98;;
64686;SDS011;51113;53.646;-113.674;2022-08-02T13:06:17;3.78;;;1.67;;
64686;SDS011;51113;53.646;-113.674;2022-08-02T13:09:11;4.88;;;1.92;;
64686;SDS011;51113;53.646;-113.674;2022-08-02T13:11:40;2.22;;;1.60;;
64686;SDS011;51113;53.646;-113.674;2022-08-02T13:14:11;5.53;;;1.73;;
64686;SDS011;51113;53.646;-113.674;2022-08-02T13:16:41;3.58;;;1.80;;
64686;SDS011;51113;53.646;-113.674;2022-08-02T13:19:12;2.00;;;1.50;;
64686;SDS011;51113;53.646;-113.674;2022-08-02T13:21:42;1.98;;;1.33;;
64686;SDS011;51113;53.646;-113.674;2022-08-02T13:24:29;8.07;;;1.75;;
64686;SDS011;51113;53.646;-113.674;2022-08-02T13:27:18;2.60;;;1.65;;
64686;SDS011;51113;53.646;-113.674;2022-08-02T13:29:47;2.67;;;1.63;;
64686;SDS011;51113;53.646;-113.674;2022-08-02T13:32:16;6.47;;;1.50;;
64686;SDS011;51113;53.646;-113.674;2022-08-02T13:34:45;4.95;;;1.85;;
64686;SDS011;51113;53.646;-113.674;2022-08-02T13:37:13;3.03;;;1.73;;
64686;SDS011;51113;53.646;-113.674;2022-08-02T13:39:42;2.70;;;1.40;;
64686;SDS011;51113;53.646;-113.674;2022-08-02T13:42:31;2.47;;;1.60;;
64686;SDS011;51113;53.646;-113.674;2022-08-02T13:44:59;4.45;;;1.50;;
64686;SDS011;51113;53.646;-113.674;2022-08-02T13:47:41;3.58;;;1.60;;
64686;SDS011;51113;53.646;-113.674;2022-08-02T13:50:30;2.10;;;1.30;;
64686;SDS011;51113;53.646;-113.674;2022-08-02T13:52:59;4.03;;;1.55;;
64686;SDS011;51113;53.646;-113.674;2022-08-02T13:55:27;2.83;;;1.50;;
64686;SDS011;51113;53.646;-113.674;2022-08-02T13:57:55;4.72;;;1.88;;
64686;SDS011;51113;53.646;-113.674;2022-08-02T14:00:24;4.38;;;1.75;;
64686;SDS011;51113;53.646;-113.674;2022-08-02T14:03:02;4.43;;;1.60;;
64686;SDS011;51113;53.646;-113.674;2022-08-02T14:05:38;4.55;;;1.80;;
64686;SDS011;51113;53.646;-113.674;2022-08-02T14:08:17;3.97;;;1.85;;
64686;SDS011;51113;53.646;-113.674;2022-08-02T14:10:46;2.50;;;1.57;;
64686;SDS011;51113;53.646;-113.674;2022-08-02T14:13:16;4.75;;;2.10;;
64686;SDS011;51113;53.646;-113.674;2022-08-02T14:15:46;8.05;;;2.13;;
64686;SDS011;51113;53.646;-113.674;2022-08-02T14:18:15;3.33;;;1.90;;
64686;SDS011;51113;53.646;-113.674;2022-08-02T14:20:43;2.38;;;1.90;;
64686;SDS011;51113;53.646;-113.674;2022-08-02T14:23:12;5.60;;;2.28;;
64686;SDS011;51113;53.646;-113.674;2022-08-02T14:25:41;3.83;;;2.20;;
64686;SDS011;51113;53.646;-113.674;2022-08-02T14:28:09;3.30;;;2.35;;
64686;SDS011;51113;53.646;-113.674;2022-08-02T14:30:38;4.82;;;2.15;;
64686;SDS011;51113;53.646;-113.674;2022-08-02T14:33:07;3.20;;;2.35;;
64686;SDS011;51113;53.646;-113.674;2022-08-02T14:35:35;3.63;;;2.30;;
64686;SDS011;51113;53.646;-113.674;2022-08-02T14:38:04;4.07;;;2.40;;
64686;SDS011;51113;53.646;-113.674;2022-08-02T14:40:33;4.72;;;2.70;;
64686;SDS011;51113;53.646;-113.674;2022-08-02T14:43:02;9.65;;;2.63;;
64686;SDS011;51113;53.646;-113.674;2022-08-02T14:45:33;6.35;;;2.42;;
64686;SDS011;51113;53.646;-113.674;2022-08-02T14:48:07;4.13;;;2.30;;
64686;SDS011;51113;53.646;-113.674;2022-08-02T14:50:39;3.90;;;2.30;;
64686;SDS011;51113;53.646;-113.674;2022-08-02T14:53:07;3.85;;;2.53;;
64686;SDS011;51113;53.646;-113.674;2022-08-02T14:55:38;5.40;;;2.47;;
64686;SDS011;51113;53.646;-113.674;2022-08-02T14:58:08;3.97;;;2.58;;
64686;SDS011;51113;53.646;-113.674;2022-08-02T15:00:38;8.15;;;2.58;;
64686;SDS011;51113;53.646;-113.674;2022-08-02T15:03:09;8.82;;;2.30;;
64686;SDS011;51113;53.646;-113.674;2022-08-02T15:05:38;4.45;;;2.78;;
64686;SDS011;51113;53.646;-113.674;2022-08-02T15:08:06;3.30;;;2.17;;
64686;SDS011;51113;53.646;-113.674;2022-08-02T15:14:18;3.33;;;2.60;;
64686;SDS011;51113;53.646;-113.674;2022-08-02T15:16:52;5.00;;;2.50;;
64686;SDS011;51113;53.646;-113.674;2022-08-02T15:19:23;7.43;;;2.60;;
64686;SDS011;51113;53.646;-113.674;2022-08-02T15:22:12;3.38;;;2.42;;
64686;SDS011;51113;53.646;-113.674;2022-08-02T15:24:47;7.43;;;2.85;;
64686;SDS011;51113;53.646;-113.674;2022-08-02T15:27:15;6.53;;;3.00;;
64686;SDS011;51113;53.646;-113.674;2022-08-02T15:29:44;5.88;;;2.78;;
64686;SDS011;51113;53.646;-113.674;2022-08-02T15:32:14;5.80;;;3.00;;
64686;SDS011;51113;53.646;-113.674;2022-08-02T15:34:46;4.43;;;2.75;;
64686;SDS011;51113;53.646;-113.674;2022-08-02T15:37:14;8.07;;;3.22;;
64686;SDS011;51113;53.646;-113.674;2022-08-02T15:39:43;5.28;;;2.92;;
64686;SDS011;51113;53.646;-113.674;2022-08-02T15:42:11;8.80;;;2.70;;